Time;durP1;ratioP1;P1;durP2;ratioP2;P2;SDS_P1;SDS_P2;PMS_P1;PMS_P2;Temp;Humidity;BMP_temperature;BMP_pressure;BME280_temperature;BME280_humidity;BME280_pressure;Samples;Min_cycle;Max_cycle;Signal;HPM_P1;HPM_P2
2023/06/26 00:02:25;;;;;;;348.60;331.00;;;;;;;;;;5011031;28;20041;-57
2023/06/26 00:04:53;;;;;;;349.90;332.15;;;;;;;;;;5015489;28;20038;-57
2023/06/26 00:07:19;;;;;;;328.17;311.75;;;;;;;;;;5014745;28;20120;-57
2023/06/26 00:09:45;;;;;;;301.92;286.90;;;;;;;;;;5013572;28;20262;-58
2023/06/26 00:12:11;;;;;;;293.40;278.90;;;;;;;;;;5011960;28;20030;-57
2023/06/26 00:14:36;;;;;;;289.25;274.98;;;;;;;;;;5016541;28;20029;-57
2023/06/26 00:17:01;;;;;;;274.50;260.98;;;;;;;;;;5012901;28;20037;-57
2023/06/26 00:19:27;;;;;;;210.18;199.90;;;;;;;;;;5014865;28;20100;-58
2023/06/26 00:21:52;;;;;;;191.80;182.48;;;;;;;;;;5013856;28;20491;-57
2023/06/26 00:24:17;;;;;;;194.63;185.13;;;;;;;;;;5012564;28;20100;-57
2023/06/26 00:26:46;;;;;;;181.00;172.18;;;;;;;;;;5016275;28;20483;-58
2023/06/26 00:29:12;;;;;;;164.07;155.98;;;;;;;;;;5015970;28;20033;-58
2023/06/26 00:31:38;;;;;;;145.93;138.77;;;;;;;;;;5011769;28;20541;-58
2023/06/26 00:34:03;;;;;;;92.07;87.50;;;;;;;;;;5014065;28;20068;-58
2023/06/26 00:36:28;;;;;;;136.63;129.90;;;;;;;;;;5012760;28;20029;-57
2023/06/26 00:38:54;;;;;;;138.57;131.77;;;;;;;;;;5011972;28;20077;-58
2023/06/26 00:41:19;;;;;;;122.22;116.22;;;;;;;;;;5015675;28;20137;-58
2023/06/26 00:43:45;;;;;;;96.07;91.30;;;;;;;;;;5013511;28;20599;-58
2023/06/26 00:46:13;;;;;;;78.55;74.60;;;;;;;;;;5013833;28;20029;-58
2023/06/26 00:48:39;;;;;;;44.22;41.95;;;;;;;;;;5012251;28;20041;-58
2023/06/26 00:51:05;;;;;;;29.27;27.73;;;;;;;;;;5014293;28;20038;-58
2023/06/26 00:53:31;;;;;;;21.67;20.48;;;;;;;;;;5012659;28;20112;-58
2023/06/26 00:55:56;;;;;;;18.85;17.75;;;;;;;;;;5014445;28;20029;-58
2023/06/26 00:58:24;;;;;;;25.20;23.70;;;;;;;;;;5013356;28;20632;-58
2023/06/26 01:00:50;;;;;;;26.50;25.02;;;;;;;;;;5013653;28;20053;-58
2023/06/26 01:03:16;;;;;;;28.55;27.00;;;;;;;;;;5013894;28;20052;-58
2023/06/26 01:05:45;;;;;;;40.15;37.85;;;;;;;;;;5009729;28;20421;-58
2023/06/26 01:08:12;;;;;;;102.38;97.18;;;;;;;;;;5011821;28;20033;-58
2023/06/26 01:10:37;;;;;;;54.88;52.05;;;;;;;;;;5014026;28;20033;-58
2023/06/26 01:13:03;;;;;;;65.53;62.15;;;;;;;;;;5013732;28;20034;-58
2023/06/26 01:15:29;;;;;;;88.85;84.20;;;;;;;;;;5016533;28;20045;-58
2023/06/26 01:17:59;;;;;;;87.80;83.20;;;;;;;;;;5012872;28;20025;-58
2023/06/26 01:20:25;;;;;;;111.13;105.28;;;;;;;;;;5010477;28;20040;-58
2023/06/26 01:23:14;;;;;;;59.47;56.30;;;;;;;;;;5015446;28;20099;-58
2023/06/26 01:26:08;;;;;;;53.60;50.75;;;;;;;;;;5020182;28;20577;-58
2023/06/26 01:28:40;;;;;;;72.05;68.20;;;;;;;;;;5013652;28;20124;-58
2023/06/26 01:31:06;;;;;;;66.57;63.08;;;;;;;;;;5013807;28;20030;-58
2023/06/26 01:33:32;;;;;;;54.33;51.40;;;;;;;;;;5012887;28;20065;-58
2023/06/26 01:35:58;;;;;;;45.58;43.20;;;;;;;;;;5014683;28;20091;-58
2023/06/26 01:38:23;;;;;;;44.30;42.00;;;;;;;;;;5011227;28;20045;-58
2023/06/26 01:40:50;;;;;;;41.30;39.05;;;;;;;;;;5011586;28;20476;-58
2023/06/26 01:43:31;;;;;;;45.45;43.10;;;;;;;;;;5014457;28;20038;-58
2023/06/26 01:46:02;;;;;;;38.10;36.05;;;;;;;;;;5018897;28;20026;-58
2023/06/26 01:48:33;;;;;;;36.20;34.33;;;;;;;;;;5015306;28;20030;-58
2023/06/26 01:50:58;;;;;;;;;;;;;;;;;;5013025;28;20025;-58
2023/06/26 01:53:26;;;;;;;32.33;30.52;;;;;;;;;;5010737;28;19967;-58
2023/06/26 01:56:02;;;;;;;34.00;32.22;;;;;;;;;;5011373;28;20025;-58
2023/06/26 01:58:28;;;;;;;34.42;32.53;;;;;;;;;;5012433;28;20037;-58
2023/06/26 02:00:54;;;;;;;32.28;30.58;;;;;;;;;;5014052;28;20048;-58
2023/06/26 02:03:20;;;;;;;32.60;30.88;;;;;;;;;;5012893;28;20510;-58
2023/06/26 02:05:45;;;;;;;31.05;29.33;;;;;;;;;;5010784;28;20041;-58
2023/06/26 02:08:14;;;;;;;26.73;25.25;;;;;;;;;;5011506;28;20238;-58
2023/06/26 02:10:39;;;;;;;25.00;23.60;;;;;;;;;;5012853;28;20133;-57
2023/06/26 02:13:05;;;;;;;22.27;21.00;;;;;;;;;;5016366;28;20456;-57
2023/06/26 02:15:30;;;;;;;22.10;20.80;;;;;;;;;;5011072;28;20040;-57
2023/06/26 02:17:55;;;;;;;24.95;23.02;;;;;;;;;;5009391;28;20033;-57
2023/06/26 02:20:21;;;;;;;54.83;51.78;;;;;;;;;;5009822;28;20037;-58
2023/06/26 02:22:46;;;;;;;74.78;70.82;;;;;;;;;;5012017;28;20036;-57
2023/06/26 02:25:12;;;;;;;37.33;35.28;;;;;;;;;;5009880;28;20396;-58
2023/06/26 02:27:38;;;;;;;59.60;56.53;;;;;;;;;;5009485;28;20038;-58
2023/06/26 02:30:04;;;;;;;22.77;21.55;;;;;;;;;;5013362;28;20261;-58
2023/06/26 02:32:29;;;;;;;19.73;18.55;;;;;;;;;;5007202;28;20052;-58
2023/06/26 02:34:54;;;;;;;25.48;24.02;;;;;;;;;;5009394;28;20029;-58
2023/06/26 02:37:20;;;;;;;33.20;31.40;;;;;;;;;;5011179;28;20124;-58
2023/06/26 02:39:45;;;;;;;67.78;64.22;;;;;;;;;;5012047;28;20352;-58
2023/06/26 02:42:11;;;;;;;40.50;38.38;;;;;;;;;;5011109;28;20033;-58
2023/06/26 02:44:36;;;;;;;34.03;32.22;;;;;;;;;;5012468;28;20113;-58
2023/06/26 02:47:01;;;;;;;37.95;35.80;;;;;;;;;;5012481;28;20033;-58
2023/06/26 02:49:27;;;;;;;42.67;40.47;;;;;;;;;;5013361;28;20057;-58
2023/06/26 02:51:52;;;;;;;32.47;30.65;;;;;;;;;;5010095;28;20037;-58
2023/06/26 02:54:17;;;;;;;38.22;36.17;;;;;;;;;;5010793;28;20108;-58
2023/06/26 02:56:43;;;;;;;45.22;42.90;;;;;;;;;;5011094;28;20131;-58
2023/06/26 02:59:08;;;;;;;83.35;78.80;;;;;;;;;;5012396;28;20107;-58
2023/06/26 03:01:34;;;;;;;76.47;72.60;;;;;;;;;;5008955;28;20025;-58
2023/06/26 03:04:00;;;;;;;62.55;59.10;;;;;;;;;;5010004;28;20098;-58
2023/06/26 03:06:27;;;;;;;57.20;54.30;;;;;;;;;;5013293;28;20121;-58
2023/06/26 03:08:53;;;;;;;57.75;54.67;;;;;;;;;;5011251;28;20037;-59
2023/06/26 03:11:19;;;;;;;69.13;65.65;;;;;;;;;;5012168;28;20106;-58
2023/06/26 03:13:44;;;;;;;51.58;48.88;;;;;;;;;;5008720;28;20033;-58
2023/06/26 03:16:09;;;;;;;34.00;32.22;;;;;;;;;;5012478;28;20053;-57
2023/06/26 03:18:35;;;;;;;37.33;35.38;;;;;;;;;;5015217;28;20105;-58
2023/06/26 03:21:00;;;;;;;31.35;29.70;;;;;;;;;;5014699;28;20037;-58
2023/06/26 03:23:26;;;;;;;31.65;29.73;;;;;;;;;;5015751;28;20098;-58
2023/06/26 03:25:51;;;;;;;30.90;29.23;;;;;;;;;;5015648;28;20030;-58
2023/06/26 03:28:17;;;;;;;28.30;26.55;;;;;;;;;;5016622;28;20456;-58
2023/06/26 03:30:42;;;;;;;22.38;21.13;;;;;;;;;;5012487;28;20093;-58
2023/06/26 03:33:08;;;;;;;22.05;20.75;;;;;;;;;;5014370;28;20048;-58
2023/06/26 03:35:33;;;;;;;18.30;17.23;;;;;;;;;;5019605;28;20083;-58
2023/06/26 03:38:00;;;;;;;19.25;18.15;;;;;;;;;;5013120;28;20310;-58
2023/06/26 03:40:26;;;;;;;23.52;22.02;;;;;;;;;;5015494;28;20057;-58
2023/06/26 03:42:51;;;;;;;21.48;20.23;;;;;;;;;;5018633;28;20069;-58
2023/06/26 03:45:17;;;;;;;22.00;20.65;;;;;;;;;;5017179;28;20038;-58
2023/06/26 03:47:42;;;;;;;19.55;18.45;;;;;;;;;;5014772;28;20042;-58
2023/06/26 03:50:08;;;;;;;21.38;20.15;;;;;;;;;;5015703;28;20037;-58
2023/06/26 03:52:34;;;;;;;22.55;21.23;;;;;;;;;;5013851;28;20341;-58
2023/06/26 03:55:00;;;;;;;22.10;20.80;;;;;;;;;;5014960;28;20087;-58
2023/06/26 03:57:25;;;;;;;21.60;20.30;;;;;;;;;;5016821;28;20495;-58
2023/06/26 03:59:52;;;;;;;21.20;20.00;;;;;;;;;;5014595;28;20034;-58
2023/06/26 04:02:18;;;;;;;21.83;20.63;;;;;;;;;;5013149;28;20068;-58
2023/06/26 04:04:43;;;;;;;18.85;17.80;;;;;;;;;;5012587;28;20197;-58
2023/06/26 04:07:09;;;;;;;21.38;20.20;;;;;;;;;;5021735;28;20038;-58
2023/06/26 04:09:34;;;;;;;20.17;18.98;;;;;;;;;;5016057;28;20034;-58
2023/06/26 04:12:00;;;;;;;17.92;16.85;;;;;;;;;;5015688;28;20452;-58
2023/06/26 04:14:25;;;;;;;23.02;21.63;;;;;;;;;;5014397;28;20100;-58
2023/06/26 04:16:50;;;;;;;18.65;17.55;;;;;;;;;;5005273;28;20136;-58
2023/06/26 04:19:16;;;;;;;22.73;21.48;;;;;;;;;;5014758;28;20045;-58
2023/06/26 04:21:41;;;;;;;19.80;18.67;;;;;;;;;;5013828;28;20038;-58
2023/06/26 04:24:07;;;;;;;17.23;16.13;;;;;;;;;;5014003;28;20190;-58
2023/06/26 04:26:32;;;;;;;17.95;16.85;;;;;;;;;;5015986;28;20056;-57
2023/06/26 04:28:59;;;;;;;19.33;18.02;;;;;;;;;;5013982;28;20386;-57
2023/06/26 04:31:24;;;;;;;18.02;16.92;;;;;;;;;;5014003;28;20088;-57
2023/06/26 04:33:50;;;;;;;17.45;16.35;;;;;;;;;;5011543;28;20037;-58
2023/06/26 04:36:17;;;;;;;17.90;16.80;;;;;;;;;;5018209;28;20161;-58
2023/06/26 04:38:42;;;;;;;21.10;19.90;;;;;;;;;;5022060;28;20033;-58
2023/06/26 04:41:07;;;;;;;18.25;17.23;;;;;;;;;;5013144;28;20033;-58
2023/06/26 04:43:33;;;;;;;19.90;18.70;;;;;;;;;;5016510;28;20520;-58
2023/06/26 04:45:58;;;;;;;27.33;25.80;;;;;;;;;;5013382;28;20046;-58
2023/06/26 04:48:24;;;;;;;19.85;18.73;;;;;;;;;;5015075;28;20060;-58
2023/06/26 04:50:53;;;;;;;22.60;21.30;;;;;;;;;;5013220;28;20115;-58
2023/06/26 04:53:20;;;;;;;21.20;20.03;;;;;;;;;;5014450;28;20047;-58
2023/06/26 04:55:46;;;;;;;29.70;28.05;;;;;;;;;;5009734;28;20104;-59
2023/06/26 04:58:11;;;;;;;21.27;20.08;;;;;;;;;;5010374;28;20041;-59
2023/06/26 05:00:37;;;;;;;23.70;22.23;;;;;;;;;;5017977;28;20781;-57
2023/06/26 05:03:02;;;;;;;18.80;17.77;;;;;;;;;;5013796;28;20126;-59
2023/06/26 05:05:28;;;;;;;18.85;17.77;;;;;;;;;;5015485;28;20033;-58
2023/06/26 05:07:54;;;;;;;19.15;18.02;;;;;;;;;;5013713;28;20040;-58
2023/06/26 05:10:20;;;;;;;19.15;18.02;;;;;;;;;;5012824;28;20100;-58
2023/06/26 05:12:45;;;;;;;26.45;24.83;;;;;;;;;;5013646;28;20107;-58
2023/06/26 05:15:10;;;;;;;27.23;25.63;;;;;;;;;;5014950;28;20068;-58
2023/06/26 05:17:36;;;;;;;27.33;25.83;;;;;;;;;;5015242;28;20056;-58
2023/06/26 05:20:01;;;;;;;29.88;28.27;;;;;;;;;;5010454;28;20417;-58
2023/06/26 05:22:27;;;;;;;25.35;23.80;;;;;;;;;;5013213;28;20192;-58
2023/06/26 05:24:54;;;;;;;28.15;26.45;;;;;;;;;;5011468;28;20330;-58
2023/06/26 05:27:21;;;;;;;24.05;22.35;;;;;;;;;;5013667;28;20074;-58
2023/06/26 05:29:48;;;;;;;20.92;19.73;;;;;;;;;;5014997;28;20073;-58
2023/06/26 05:32:17;;;;;;;20.75;19.55;;;;;;;;;;5016343;28;20058;-58
2023/06/26 05:34:46;;;;;;;24.02;22.73;;;;;;;;;;5014936;28;20095;-58
2023/06/26 05:37:16;;;;;;;21.40;20.15;;;;;;;;;;5012616;28;20033;-59
2023/06/26 05:39:42;;;;;;;24.90;23.53;;;;;;;;;;5013146;28;20041;-58
2023/06/26 05:42:08;;;;;;;24.45;22.98;;;;;;;;;;5012973;28;20737;-58
2023/06/26 05:44:33;;;;;;;23.08;21.65;;;;;;;;;;5011360;28;20033;-58
2023/06/26 05:46:59;;;;;;;44.10;41.75;;;;;;;;;;5012375;28;20042;-58
2023/06/26 05:49:24;;;;;;;27.27;25.70;;;;;;;;;;5013430;28;20033;-58
2023/06/26 05:51:49;;;;;;;30.77;29.13;;;;;;;;;;5012663;28;20538;-58
2023/06/26 05:54:15;;;;;;;30.83;29.13;;;;;;;;;;5013169;28;20034;-58
2023/06/26 05:56:41;;;;;;;36.42;34.40;;;;;;;;;;5013381;28;20076;-58
2023/06/26 05:59:07;;;;;;;42.00;39.75;;;;;;;;;;5012083;28;20041;-58
2023/06/26 06:01:34;;;;;;;63.70;60.47;;;;;;;;;;5013060;28;20033;-58
2023/06/26 06:03:59;;;;;;;45.70;43.03;;;;;;;;;;5012092;28;20037;-59
2023/06/26 06:06:24;;;;;;;45.65;43.15;;;;;;;;;;5009448;28;20091;-59
2023/06/26 06:08:50;;;;;;;63.38;60.08;;;;;;;;;;5009614;28;20037;-58
2023/06/26 06:11:15;;;;;;;14.98;14.07;;;;;;;;;;5011392;28;20108;-59
2023/06/26 06:13:41;;;;;;;17.15;16.15;;;;;;;;;;5011974;28;20037;-59
2023/06/26 06:16:06;;;;;;;16.60;15.50;;;;;;;;;;5011577;28;20037;-59
2023/06/26 06:18:31;;;;;;;20.13;19.00;;;;;;;;;;5011557;28;20033;-59
2023/06/26 06:20:57;;;;;;;20.55;19.35;;;;;;;;;;5008869;28;20660;-59
2023/06/26 06:23:23;;;;;;;18.17;17.13;;;;;;;;;;5010658;28;20456;-59
2023/06/26 06:25:48;;;;;;;18.00;16.95;;;;;;;;;;5011904;28;20060;-58
2023/06/26 06:28:16;;;;;;;18.67;17.60;;;;;;;;;;5012300;28;20852;-58
2023/06/26 06:30:41;;;;;;;94.72;89.88;;;;;;;;;;5012659;28;20038;-58
2023/06/26 06:33:07;;;;;;;120.90;114.85;;;;;;;;;;5009496;28;20107;-58
2023/06/26 06:35:32;;;;;;;123.32;117.05;;;;;;;;;;5011439;28;20045;-58
2023/06/26 06:37:57;;;;;;;74.80;71.05;;;;;;;;;;5009828;28;20072;-58
2023/06/26 06:40:24;;;;;;;221.65;210.82;;;;;;;;;;5011013;28;20061;-59
2023/06/26 06:42:50;;;;;;;301.48;286.65;;;;;;;;;;5006593;28;20037;-58
2023/06/26 06:45:15;;;;;;;355.27;337.67;;;;;;;;;;5010660;28;20045;-58
2023/06/26 06:47:40;;;;;;;289.85;275.70;;;;;;;;;;5014033;28;20525;-58
2023/06/26 06:50:09;;;;;;;378.05;359.20;;;;;;;;;;5007915;28;20085;-55
2023/06/26 06:52:37;;;;;;;355.25;337.65;;;;;;;;;;5007443;28;20471;-58
2023/06/26 06:55:05;;;;;;;363.05;345.05;;;;;;;;;;5014160;28;20040;-58
2023/06/26 06:57:30;;;;;;;339.15;322.10;;;;;;;;;;5015462;28;20121;-58
2023/06/26 06:59:55;;;;;;;341.55;324.67;;;;;;;;;;5014139;28;20519;-58
2023/06/26 07:02:21;;;;;;;303.88;289.05;;;;;;;;;;5015148;28;20034;-58
2023/06/26 07:04:46;;;;;;;160.00;152.13;;;;;;;;;;5016806;28;20047;-59
2023/06/26 07:07:13;;;;;;;326.17;309.85;;;;;;;;;;5016685;28;20337;-59
2023/06/26 07:09:39;;;;;;;339.55;322.67;;;;;;;;;;5015165;28;20187;-58
2023/06/26 07:12:05;;;;;;;187.25;177.95;;;;;;;;;;5013116;28;20116;-58
2023/06/26 07:14:30;;;;;;;142.98;135.90;;;;;;;;;;5013907;28;20041;-59
2023/06/26 07:16:56;;;;;;;150.45;142.98;;;;;;;;;;5014537;28;20113;-59
2023/06/26 07:19:21;;;;;;;74.80;71.05;;;;;;;;;;5013593;28;20029;-58
2023/06/26 07:21:47;;;;;;;134.88;128.02;;;;;;;;;;5013443;28;20038;-57
2023/06/26 07:24:12;;;;;;;124.75;118.57;;;;;;;;;;5016337;28;20038;-57
2023/06/26 07:26:38;;;;;;;41.65;39.55;;;;;;;;;;5014229;28;20349;-58
2023/06/26 07:29:03;;;;;;;59.92;56.75;;;;;;;;;;5017654;28;20110;-59
2023/06/26 07:31:29;;;;;;;43.08;40.75;;;;;;;;;;5010511;28;20066;-59
2023/06/26 07:33:54;;;;;;;54.72;51.92;;;;;;;;;;5015846;28;20037;-57
2023/06/26 07:36:20;;;;;;;166.80;158.43;;;;;;;;;;5022965;28;20109;-58
2023/06/26 07:38:45;;;;;;;49.25;46.75;;;;;;;;;;5012689;28;20045;-58
2023/06/26 07:41:10;;;;;;;43.45;41.20;;;;;;;;;;5020030;28;20207;-58
2023/06/26 07:43:36;;;;;;;50.88;48.22;;;;;;;;;;5014032;28;20072;-59
2023/06/26 07:46:01;;;;;;;45.67;43.13;;;;;;;;;;5012541;28;20049;-58
2023/06/26 07:48:26;;;;;;;43.83;41.53;;;;;;;;;;5013963;28;20473;-58
2023/06/26 07:50:53;;;;;;;95.70;90.95;;;;;;;;;;5017295;28;20033;-58
2023/06/26 07:53:18;;;;;;;157.95;150.20;;;;;;;;;;5015182;28;20464;-59
2023/06/26 07:55:43;;;;;;;124.43;118.25;;;;;;;;;;5014323;28;20032;-59
2023/06/26 07:58:09;;;;;;;182.77;173.77;;;;;;;;;;5011802;28;20237;-68
2023/06/26 08:00:35;;;;;;;161.60;153.63;;;;;;;;;;5014658;28;20045;-66
2023/06/26 08:03:00;;;;;;;173.32;164.82;;;;;;;;;;5016009;28;20127;-68
2023/06/26 08:05:26;;;;;;;189.40;180.13;;;;;;;;;;5013159;28;20046;-59
2023/06/26 08:07:51;;;;;;;185.75;176.60;;;;;;;;;;5005037;28;20107;-59
2023/06/26 08:10:16;;;;;;;148.13;140.85;;;;;;;;;;5014874;28;20045;-58
2023/06/26 08:12:44;;;;;;;191.40;182.10;;;;;;;;;;5014936;28;20041;-59
2023/06/26 08:15:10;;;;;;;168.73;160.43;;;;;;;;;;5016879;28;20056;-58
2023/06/26 08:17:38;;;;;;;93.82;89.10;;;;;;;;;;5012762;28;20033;-58
2023/06/26 08:20:04;;;;;;;85.30;80.95;;;;;;;;;;5012730;28;20033;-59
2023/06/26 08:22:30;;;;;;;170.70;162.10;;;;;;;;;;5013488;28;20042;-59
2023/06/26 08:24:56;;;;;;;97.32;92.30;;;;;;;;;;5012910;28;20187;-59
2023/06/26 08:27:21;;;;;;;146.20;138.80;;;;;;;;;;5013619;28;20132;-67
2023/06/26 08:29:47;;;;;;;185.70;176.57;;;;;;;;;;5011159;28;20045;-59
2023/06/26 08:32:12;;;;;;;103.38;98.10;;;;;;;;;;5013397;28;20468;-68
2023/06/26 08:34:37;;;;;;;106.32;101.05;;;;;;;;;;5013790;28;20644;-67
2023/06/26 08:37:03;;;;;;;82.20;78.07;;;;;;;;;;5013103;28;20094;-59
2023/06/26 08:39:28;;;;;;;107.25;101.85;;;;;;;;;;5014583;28;20121;-67
2023/06/26 08:41:54;;;;;;;259.05;246.18;;;;;;;;;;5013805;28;20136;-58
2023/06/26 08:44:23;;;;;;;108.32;102.93;;;;;;;;;;5015855;28;20069;-58
2023/06/26 08:46:49;;;;;;;142.88;135.82;;;;;;;;;;5013348;28;20088;-66
2023/06/26 08:49:25;;;;;;;174.48;165.88;;;;;;;;;;5013144;28;20069;-67
2023/06/26 08:52:02;;;;;;;83.65;79.45;;;;;;;;;;5015815;28;20129;-66
2023/06/26 08:54:34;;;;;;;112.82;107.25;;;;;;;;;;5013673;28;20516;-67
2023/06/26 08:56:59;;;;;;;82.65;78.50;;;;;;;;;;5013240;28;20041;-58
2023/06/26 08:59:25;;;;;;;222.52;211.63;;;;;;;;;;5017159;28;20361;-58
2023/06/26 09:01:51;;;;;;;53.78;51.03;;;;;;;;;;5015128;28;20044;-58
2023/06/26 09:04:16;;;;;;;59.83;56.75;;;;;;;;;;5011645;28;20107;-58
2023/06/26 09:06:42;;;;;;;65.63;62.10;;;;;;;;;;5012812;28;20043;-59
2023/06/26 09:09:07;;;;;;;65.75;62.38;;;;;;;;;;5010845;28;20038;-59
2023/06/26 09:11:33;;;;;;;147.98;140.68;;;;;;;;;;5012930;28;20121;-59
2023/06/26 09:13:59;;;;;;;101.38;96.35;;;;;;;;;;5015200;28;20037;-58
2023/06/26 09:16:28;;;;;;;102.15;96.90;;;;;;;;;;5006198;28;20064;-58
2023/06/26 09:18:54;;;;;;;97.55;92.70;;;;;;;;;;5010807;28;20655;-67
2023/06/26 09:21:19;;;;;;;114.47;108.72;;;;;;;;;;5011993;28;20042;-58
2023/06/26 09:23:45;;;;;;;105.13;99.78;;;;;;;;;;5013182;28;20121;-67
2023/06/26 09:26:11;;;;;;;112.72;107.18;;;;;;;;;;5012363;28;20196;-67
2023/06/26 09:28:36;;;;;;;117.28;111.43;;;;;;;;;;5015698;28;20037;-67
2023/06/26 09:31:03;;;;;;;118.25;112.40;;;;;;;;;;5011705;28;20639;-58
2023/06/26 09:33:35;;;;;;;101.63;96.57;;;;;;;;;;5011161;28;20096;-58
2023/06/26 09:36:01;;;;;;;87.97;83.60;;;;;;;;;;5011259;28;20110;-66
2023/06/26 09:38:26;;;;;;;88.07;83.68;;;;;;;;;;5011333;28;20096;-59
2023/06/26 09:40:52;;;;;;;90.53;85.80;;;;;;;;;;5011457;28;20119;-66
2023/06/26 09:43:18;;;;;;;94.32;89.63;;;;;;;;;;5012600;28;20034;-66
2023/06/26 09:45:44;;;;;;;97.25;92.30;;;;;;;;;;5016821;28;20114;-67
2023/06/26 09:48:11;;;;;;;88.63;84.22;;;;;;;;;;5014487;28;20498;-65
2023/06/26 09:50:40;;;;;;;94.63;89.88;;;;;;;;;;5012464;28;20037;-67
2023/06/26 09:53:10;;;;;;;95.20;90.45;;;;;;;;;;5012592;28;20460;-66
2023/06/26 09:55:36;;;;;;;;;;;;;;;;;;5013879;28;20133;-66
2023/06/26 09:58:03;;;;;;;118.07;112.25;;;;;;;;;;5015026;28;20027;-59
2023/06/26 10:00:30;;;;;;;113.50;107.88;;;;;;;;;;5014292;28;20119;-58
2023/06/26 10:02:56;;;;;;;97.57;92.72;;;;;;;;;;5013382;28;20468;-59
2023/06/26 10:05:21;;;;;;;86.38;82.03;;;;;;;;;;5010417;28;20076;-59
2023/06/26 10:07:48;;;;;;;103.35;98.15;;;;;;;;;;5011777;28;20030;-58
2023/06/26 10:10:16;;;;;;;84.07;79.85;;;;;;;;;;5012947;28;20125;-58
2023/06/26 10:12:44;;;;;;;91.85;87.30;;;;;;;;;;5010973;28;20037;-59
2023/06/26 10:15:12;;;;;;;89.70;85.20;;;;;;;;;;5010649;28;20757;-66
2023/06/26 10:17:39;;;;;;;90.22;85.78;;;;;;;;;;5016065;28;20493;-62
2023/06/26 10:20:06;;;;;;;94.07;89.40;;;;;;;;;;5014300;28;20030;-63
2023/06/26 10:22:39;;;;;;;89.32;84.85;;;;;;;;;;5008720;28;20037;-62
2023/06/26 10:25:07;;;;;;;114.90;109.13;;;;;;;;;;5011298;28;20810;-65
2023/06/26 10:27:38;;;;;;;116.43;110.60;;;;;;;;;;5011251;28;20125;-64
2023/06/26 10:30:09;;;;;;;132.05;125.43;;;;;;;;;;5013466;28;20030;-63
2023/06/26 10:32:34;;;;;;;117.43;111.60;;;;;;;;;;5006038;28;20423;-62
2023/06/26 10:35:02;;;;;;;127.55;121.20;;;;;;;;;;5009470;28;20034;-66
2023/06/26 10:37:47;;;;;;;120.63;114.68;;;;;;;;;;5012328;28;20045;-65
2023/06/26 10:40:14;;;;;;;132.02;125.50;;;;;;;;;;5017529;28;20037;-66
2023/06/26 10:42:40;;;;;;;141.60;134.45;;;;;;;;;;5009299;28;20034;-64
2023/06/26 10:45:28;;;;;;;113.68;107.97;;;;;;;;;;5009191;28;20412;-64
2023/06/26 10:47:53;;;;;;;105.38;100.15;;;;;;;;;;5011724;28;20562;-67
2023/06/26 10:50:30;;;;;;;94.55;89.85;;;;;;;;;;5010725;28;20053;-66
2023/06/26 10:53:26;;;;;;;86.47;82.13;;;;;;;;;;5010447;28;20044;-66
2023/06/26 10:55:56;;;;;;;82.53;78.38;;;;;;;;;;5010588;28;20105;-66
2023/06/26 10:58:46;;;;;;;73.15;69.53;;;;;;;;;;5013424;28;20048;-66
2023/06/26 11:01:12;;;;;;;;;;;;;;;;;;5009819;28;20474;-59
2023/06/26 11:04:03;;;;;;;96.45;91.60;;;;;;;;;;5008917;28;19917;-59
2023/06/26 11:06:30;;;;;;;79.10;75.15;;;;;;;;;;5006697;28;20054;-59
2023/06/26 11:09:04;;;;;;;53.35;50.67;;;;;;;;;;5010377;28;20234;-59
2023/06/26 11:11:57;;;;;;;41.13;39.03;;;;;;;;;;5012114;28;20056;-59
2023/06/26 11:14:24;;;;;;;30.45;28.83;;;;;;;;;;5009177;28;20033;-59
2023/06/26 11:16:49;;;;;;;37.83;35.83;;;;;;;;;;5011617;28;20044;-59
2023/06/26 11:19:18;;;;;;;24.95;23.65;;;;;;;;;;5013965;28;20037;-59
2023/06/26 11:21:43;;;;;;;25.23;23.83;;;;;;;;;;5010828;28;20456;-59
2023/06/26 11:24:11;;;;;;;24.70;23.30;;;;;;;;;;5012366;28;20072;-59
2023/06/26 11:26:41;;;;;;;25.42;24.02;;;;;;;;;;5011696;28;20092;-59
2023/06/26 11:29:06;;;;;;;;;;;;;;;;;;5008920;28;20033;-58
2023/06/26 11:31:35;;;;;;;46.58;44.13;;;;;;;;;;5013933;28;19917;-58
2023/06/26 11:34:05;;;;;;;26.57;25.10;;;;;;;;;;5009092;28;20042;-57
2023/06/26 11:36:31;;;;;;;26.75;25.25;;;;;;;;;;5013481;28;20108;-57
2023/06/26 11:38:59;;;;;;;32.15;30.45;;;;;;;;;;5011110;28;20152;-57
2023/06/26 11:41:28;;;;;;;29.00;27.40;;;;;;;;;;5015164;28;20037;-57
2023/06/26 11:43:54;;;;;;;19.17;18.08;;;;;;;;;;5014989;28;20550;-58
2023/06/26 11:46:21;;;;;;;17.40;16.40;;;;;;;;;;5012481;28;20116;-65
2023/06/26 11:48:47;;;;;;;18.65;17.55;;;;;;;;;;5015281;28;20364;-63
2023/06/26 11:51:14;;;;;;;19.80;18.65;;;;;;;;;;5013796;28;20050;-57
2023/06/26 11:53:44;;;;;;;20.40;19.27;;;;;;;;;;5014748;28;20033;-57
2023/06/26 11:56:12;;;;;;;19.65;18.55;;;;;;;;;;5014703;28;20099;-58
2023/06/26 11:58:55;;;;;;;18.83;17.73;;;;;;;;;;5018208;28;20491;-58
2023/06/26 12:01:21;;;;;;;19.42;18.23;;;;;;;;;;5015144;28;20486;-59
2023/06/26 12:03:46;;;;;;;23.83;22.55;;;;;;;;;;5014948;28;20044;-56
2023/06/26 12:06:12;;;;;;;22.85;21.55;;;;;;;;;;5015285;28;20716;-57
2023/06/26 12:08:37;;;;;;;19.45;18.35;;;;;;;;;;5014101;28;20523;-57
2023/06/26 12:11:04;;;;;;;21.80;20.60;;;;;;;;;;5012898;28;20107;-58
2023/06/26 12:13:30;;;;;;;21.10;19.90;;;;;;;;;;5013700;28;20558;-57
2023/06/26 12:15:57;;;;;;;19.17;18.08;;;;;;;;;;5011030;28;20033;-57
2023/06/26 12:18:24;;;;;;;21.02;19.58;;;;;;;;;;5014991;28;20116;-57
2023/06/26 12:20:49;;;;;;;22.90;20.98;;;;;;;;;;5014873;28;20060;-57
2023/06/26 12:23:14;;;;;;;24.25;22.75;;;;;;;;;;5013595;28;20459;-58
2023/06/26 12:25:40;;;;;;;19.88;18.77;;;;;;;;;;5015470;28;20499;-57
2023/06/26 12:28:18;;;;;;;23.35;21.88;;;;;;;;;;5011525;28;20367;-58
2023/06/26 12:30:47;;;;;;;26.25;24.85;;;;;;;;;;5014619;28;20030;-57
2023/06/26 12:33:14;;;;;;;22.23;21.02;;;;;;;;;;5014225;28;20048;-58
2023/06/26 12:35:39;;;;;;;23.15;21.75;;;;;;;;;;5013526;28;20052;-64
2023/06/26 12:38:10;;;;;;;20.98;19.73;;;;;;;;;;5014819;28;20120;-57
2023/06/26 12:40:44;;;;;;;21.98;20.67;;;;;;;;;;5016465;28;20038;-57
2023/06/26 12:43:11;;;;;;;33.42;31.67;;;;;;;;;;5011426;28;20467;-57
2023/06/26 12:45:40;;;;;;;61.63;58.38;;;;;;;;;;5015015;28;20033;-58
2023/06/26 12:48:12;;;;;;;43.67;41.15;;;;;;;;;;5011871;28;20026;-57
2023/06/26 12:50:44;;;;;;;44.78;42.45;;;;;;;;;;5012365;28;20360;-58
2023/06/26 12:53:10;;;;;;;63.05;59.85;;;;;;;;;;5011731;28;20045;-59
2023/06/26 12:55:36;;;;;;;75.57;71.68;;;;;;;;;;5013496;28;20384;-57
2023/06/26 12:58:01;;;;;;;75.13;71.28;;;;;;;;;;5013199;28;20037;-60
2023/06/26 13:00:26;;;;;;;49.00;46.42;;;;;;;;;;5013279;28;20041;-60
2023/06/26 13:02:52;;;;;;;70.43;66.82;;;;;;;;;;5014743;28;20304;-59
2023/06/26 13:05:17;;;;;;;22.35;21.05;;;;;;;;;;5012414;28;20037;-59
2023/06/26 13:07:42;;;;;;;18.80;17.75;;;;;;;;;;5011832;28;20232;-59
2023/06/26 13:10:08;;;;;;;21.38;20.10;;;;;;;;;;5012577;28;20084;-65
2023/06/26 13:12:34;;;;;;;20.23;19.05;;;;;;;;;;5013014;28;20080;-64
2023/06/26 13:14:59;;;;;;;21.85;20.60;;;;;;;;;;5012867;28;20042;-64
2023/06/26 13:17:24;;;;;;;23.90;22.60;;;;;;;;;;5012010;28;20113;-63
2023/06/26 13:19:50;;;;;;;26.15;24.75;;;;;;;;;;5014770;28;20470;-65
2023/06/26 13:22:15;;;;;;;45.75;43.40;;;;;;;;;;5012480;28;20474;-65
2023/06/26 13:24:41;;;;;;;28.92;27.38;;;;;;;;;;5011240;28;20038;-59
2023/06/26 13:27:06;;;;;;;22.45;21.25;;;;;;;;;;5009388;28;20053;-66
2023/06/26 13:29:32;;;;;;;38.38;36.38;;;;;;;;;;4996572;28;20041;-59
2023/06/26 13:31:57;;;;;;;36.92;34.60;;;;;;;;;;5011755;28;20480;-65
2023/06/26 13:34:24;;;;;;;26.33;24.83;;;;;;;;;;5013366;28;20053;-59
2023/06/26 13:36:49;;;;;;;26.20;24.70;;;;;;;;;;5012553;28;20668;-59
2023/06/26 13:39:15;;;;;;;20.27;19.05;;;;;;;;;;5012713;28;20371;-65
2023/06/26 13:41:40;;;;;;;37.40;35.42;;;;;;;;;;5014315;28;20462;-65
2023/06/26 13:44:05;;;;;;;46.80;44.30;;;;;;;;;;5012469;28;20041;-65
2023/06/26 13:46:31;;;;;;;37.30;35.30;;;;;;;;;;5014599;28;20048;-59
2023/06/26 13:48:56;;;;;;;32.92;31.20;;;;;;;;;;5012602;28;20108;-59
2023/06/26 13:51:21;;;;;;;30.35;28.75;;;;;;;;;;5013925;28;20105;-59
2023/06/26 13:53:47;;;;;;;29.23;27.67;;;;;;;;;;5013050;28;20026;-59
2023/06/26 13:56:12;;;;;;;24.58;23.27;;;;;;;;;;5010755;28;20052;-65
2023/06/26 13:58:39;;;;;;;33.95;32.17;;;;;;;;;;5011220;28;20116;-58
2023/06/26 14:01:04;;;;;;;42.85;40.65;;;;;;;;;;5012707;28;20486;-65
2023/06/26 14:03:30;;;;;;;38.95;36.90;;;;;;;;;;5011793;28;20127;-64
2023/06/26 14:05:55;;;;;;;28.70;27.15;;;;;;;;;;5015762;28;20038;-64
2023/06/26 14:08:20;;;;;;;37.22;35.22;;;;;;;;;;5013715;28;20052;-65
2023/06/26 14:10:46;;;;;;;33.10;31.40;;;;;;;;;;5013121;28;20072;-67
2023/06/26 14:13:14;;;;;;;35.13;33.30;;;;;;;;;;5009290;28;20038;-64